createdAt,value
2023-05-08T00:01:57.234Z,3.75
2023-05-08T00:07:02.051Z,3.50
2023-05-08T00:12:07.098Z,4.00
2023-05-08T00:17:11.929Z,2.00
2023-05-08T00:22:16.770Z,3.00
2023-05-08T00:27:21.725Z,4.00
2023-05-08T00:32:27.030Z,4.00
2023-05-08T00:37:31.897Z,4.00
2023-05-08T00:42:36.721Z,4.00
2023-05-08T00:47:42.000Z,4.00
2023-05-08T00:52:46.977Z,6.00
2023-05-08T00:57:51.973Z,4.25
2023-05-08T01:02:56.921Z,4.00
2023-05-08T01:08:01.773Z,5.50
2023-05-08T01:13:09.694Z,4.25
2023-05-08T01:18:23.471Z,3.50
2023-05-08T01:23:34.045Z,5.00
2023-05-08T01:28:41.824Z,4.75
2023-05-08T01:33:46.359Z,5.00
2023-05-08T01:38:55.653Z,5.00
2023-05-08T01:44:00.067Z,5.50
2023-05-08T01:49:12.693Z,7.25
2023-05-08T01:54:18.571Z,3.75
2023-05-08T01:59:23.947Z,6.00
2023-05-08T02:04:29.308Z,5.00
2023-05-08T02:09:33.591Z,5.50
2023-05-08T02:14:39.294Z,5.00
2023-05-08T02:19:47.541Z,3.00
2023-05-08T02:24:56.541Z,4.00
2023-05-08T02:30:02.384Z,4.50
2023-05-08T02:35:07.605Z,4.75
2023-05-08T02:40:15.159Z,3.25
2023-05-08T02:45:20.552Z,4.50
2023-05-08T02:50:31.089Z,2.00
2023-05-08T02:55:41.811Z,3.25
2023-05-08T03:00:51.603Z,3.00
2023-05-08T03:05:58.891Z,2.00
2023-05-08T03:11:06.439Z,3.50
2023-05-08T03:16:15.001Z,2.25
2023-05-08T03:21:21.216Z,3.00
2023-05-08T03:26:26.104Z,4.00
2023-05-08T03:31:34.255Z,3.00
2023-05-08T03:36:40.449Z,3.00
2023-05-08T03:41:46.949Z,2.25
2023-05-08T03:46:52.821Z,3.00
2023-05-08T03:51:58.156Z,3.00
2023-05-08T03:57:03.286Z,3.25
2023-05-08T04:02:11.558Z,3.00
2023-05-08T04:07:19.736Z,3.00
2023-05-08T04:12:38.067Z,4.50
2023-05-08T04:17:45.650Z,2.75
2023-05-08T04:22:52.427Z,2.00
2023-05-08T04:27:59.990Z,2.00
2023-05-08T04:33:07.339Z,2.00
2023-05-08T04:38:12.970Z,2.00
2023-05-08T04:43:17.846Z,4.00
2023-05-08T04:48:22.653Z,2.00
2023-05-08T04:53:27.773Z,1.75
2023-05-08T04:58:32.386Z,2.00
2023-05-08T05:03:37.031Z,2.75
2023-05-08T05:08:42.164Z,2.75
2023-05-08T05:13:47.476Z,1.00
2023-05-08T05:18:52.130Z,2.00
2023-05-08T05:23:56.768Z,1.00
2023-05-08T05:29:01.467Z,2.00
2023-05-08T05:34:06.379Z,3.00
2023-05-08T05:39:11.026Z,1.75
2023-05-08T05:44:16.863Z,3.25
2023-05-08T05:49:21.338Z,2.50
2023-05-08T05:54:25.988Z,1.00
2023-05-08T05:59:30.719Z,2.00
2023-05-08T06:04:35.339Z,2.50
2023-05-08T06:09:40.002Z,2.00
2023-05-08T06:14:47.137Z,1.50
2023-05-08T06:19:55.251Z,1.00
2023-05-08T06:25:00.047Z,1.50
2023-05-08T06:30:04.725Z,1.25
2023-05-08T06:35:10.592Z,2.00
2023-05-08T06:40:15.418Z,1.00
2023-05-08T06:45:20.624Z,0.25
2023-05-08T06:50:29.334Z,1.00
2023-05-08T06:55:33.587Z,1.25
2023-05-08T07:00:38.296Z,1.00
2023-05-08T07:05:42.422Z,2.00
2023-05-08T07:10:46.995Z,1.00
2023-05-08T07:15:51.356Z,1.00
2023-05-08T07:20:55.681Z,1.00
2023-05-08T07:26:00.695Z,0.75
2023-05-08T07:31:10.993Z,1.00
2023-05-08T07:36:15.731Z,2.00
2023-05-08T07:41:20.387Z,2.00
2023-05-08T07:46:24.752Z,1.00
2023-05-08T07:51:29.168Z,1.00
2023-05-08T07:56:33.556Z,1.00
2023-05-08T08:01:38.120Z,1.00
2023-05-08T08:06:42.997Z,2.00
2023-05-08T08:11:47.632Z,2.00
2023-05-08T08:16:51.894Z,1.75
2023-05-08T08:21:56.325Z,2.00
2023-05-08T08:27:00.729Z,2.75
2023-05-08T08:32:05.104Z,1.00
2023-05-08T08:37:09.903Z,1.00
2023-05-08T08:42:14.821Z,1.00
2023-05-08T08:47:20.867Z,1.00
2023-05-08T08:52:49.035Z,1.00
2023-05-08T08:58:05.626Z,1.50
2023-05-08T09:03:10.461Z,3.00
2023-05-08T09:08:15.044Z,8.00
2023-05-08T09:13:20.560Z,6.25
2023-05-08T09:18:25.125Z,8.50
2023-05-08T09:23:29.781Z,8.25
2023-05-08T09:28:34.204Z,10.75
2023-05-08T09:33:45.771Z,13.00
2023-05-08T09:38:50.347Z,10.25
2023-05-08T09:44:12.512Z,13.00
2023-05-08T09:49:18.960Z,14.75
2023-05-08T09:54:23.534Z,12.50
2023-05-08T09:59:34.279Z,10.00
2023-05-08T10:04:39.759Z,8.00
2023-05-08T10:09:59.465Z,9.00
2023-05-08T10:15:03.862Z,7.00
2023-05-08T10:20:09.022Z,11.00
2023-05-08T10:25:18.396Z,11.00
2023-05-08T10:30:26.524Z,13.50
2023-05-08T10:35:32.982Z,12.50
2023-05-08T10:40:37.695Z,15.75
2023-05-08T10:45:42.809Z,12.50
2023-05-08T10:50:50.002Z,14.00
2023-05-08T10:55:54.752Z,15.25
2023-05-08T11:01:00.740Z,12.25
2023-05-08T11:06:05.346Z,10.25
2023-05-08T11:11:15.538Z,9.75
2023-05-08T11:16:20.530Z,11.50
2023-05-08T11:21:25.699Z,11.75
2023-05-08T11:26:42.590Z,9.50
2023-05-08T11:31:54.304Z,11.00
2023-05-08T11:37:05.359Z,9.75
2023-05-08T11:42:31.586Z,9.75
2023-05-08T11:47:40.822Z,10.00
2023-05-08T11:52:45.489Z,10.25
2023-05-08T11:57:50.433Z,11.25
2023-05-08T12:02:54.947Z,8.75
2023-05-08T12:08:01.344Z,6.75
2023-05-08T12:13:17.448Z,7.00
2023-05-08T12:18:22.537Z,8.00
2023-05-08T12:23:28.059Z,9.75
2023-05-08T12:28:36.766Z,7.00
2023-05-08T12:33:41.908Z,6.00
2023-05-08T12:38:47.553Z,7.00
2023-05-08T12:43:52.457Z,6.25
2023-05-08T12:49:09.221Z,7.00
2023-05-08T12:54:15.415Z,6.50
2023-05-08T12:59:30.260Z,5.00
2023-05-08T13:04:39.198Z,5.00
2023-05-08T13:10:06.432Z,4.25
2023-05-08T13:15:11.684Z,3.00
2023-05-08T13:20:16.401Z,3.75
2023-05-08T13:25:20.671Z,4.00
2023-05-08T13:30:24.991Z,4.00
2023-05-08T13:35:32.347Z,4.00
2023-05-08T13:40:36.636Z,3.00
2023-05-08T13:45:41.331Z,4.50
2023-05-08T13:50:46.341Z,4.00
2023-05-08T13:55:51.336Z,4.75
2023-05-08T14:00:56.559Z,5.25
2023-05-08T14:06:01.910Z,4.00
2023-05-08T14:11:06.840Z,4.00
2023-05-08T14:16:13.812Z,4.00
2023-05-08T14:21:18.894Z,5.00
2023-05-08T14:26:24.209Z,5.50
2023-05-08T14:31:29.152Z,5.25
2023-05-08T14:36:34.443Z,5.00
2023-05-08T14:41:42.077Z,3.50
2023-05-08T14:46:50.957Z,5.25
2023-05-08T14:51:56.060Z,5.00
2023-05-08T14:57:01.051Z,5.25
2023-05-08T15:02:05.928Z,6.25
2023-05-08T15:07:11.062Z,5.25
2023-05-08T15:12:16.119Z,8.00
2023-05-08T15:17:21.255Z,6.00
2023-05-08T15:22:26.527Z,6.00
2023-05-08T15:27:33.503Z,6.25
2023-05-08T15:32:39.660Z,6.00
2023-05-08T15:37:44.523Z,5.75
2023-05-08T15:42:49.451Z,7.75
2023-05-08T15:47:54.456Z,6.00
2023-05-08T15:52:59.386Z,6.00
2023-05-08T15:58:04.803Z,6.00
2023-05-08T16:03:10.419Z,7.00
2023-05-08T16:08:15.446Z,6.00
2023-05-08T16:13:20.388Z,6.50
2023-05-08T16:18:25.211Z,8.25
2023-05-08T16:23:29.908Z,9.50
2023-05-08T16:28:34.796Z,8.25
2023-05-08T16:33:40.132Z,7.00
2023-05-08T16:38:44.997Z,7.00
2023-05-08T16:43:50.122Z,9.00
2023-05-08T16:48:55.124Z,9.00
2023-05-08T16:53:59.940Z,7.75
2023-05-08T16:59:07.897Z,7.00
2023-05-08T17:04:13.454Z,8.00
2023-05-08T17:09:19.722Z,10.75
2023-05-08T17:14:24.514Z,9.00
2023-05-08T17:19:40.856Z,9.75
2023-05-08T17:24:55.054Z,9.50
2023-05-08T17:29:59.967Z,9.50
2023-05-08T17:35:08.368Z,12.00
2023-05-08T17:40:41.523Z,10.00
2023-05-08T17:45:55.286Z,8.75
2023-05-08T17:51:19.181Z,11.25
2023-05-08T17:56:31.169Z,11.75
2023-05-08T18:01:42.906Z,10.25
2023-05-08T18:06:56.768Z,9.50
2023-05-08T18:12:24.534Z,11.00
2023-05-08T18:17:41.161Z,10.00
2023-05-08T18:28:22.329Z,10.00
2023-05-08T18:33:34.696Z,10.75
2023-05-08T18:38:43.142Z,13.00
2023-05-08T18:43:53.616Z,12.25
2023-05-08T18:49:09.695Z,11.75
2023-05-08T18:54:40.334Z,11.50
2023-05-08T18:59:45.376Z,9.75
2023-05-08T19:04:50.468Z,14.50
2023-05-08T19:09:58.228Z,12.00
2023-05-08T19:15:06.330Z,10.75
2023-05-08T19:20:14.844Z,10.00
2023-05-08T19:25:20.321Z,12.25
2023-05-08T19:30:28.027Z,9.75
2023-05-08T19:35:42.309Z,10.75
2023-05-08T19:40:57.264Z,9.00
2023-05-08T19:46:02.972Z,11.75
2023-05-08T19:51:08.705Z,13.00
2023-05-08T19:56:17.003Z,11.50
2023-05-08T20:01:22.189Z,12.25
2023-05-08T20:06:27.192Z,12.75
2023-05-08T20:11:40.878Z,15.00
2023-05-08T20:16:45.757Z,13.25
2023-05-08T20:21:50.703Z,10.25
2023-05-08T20:27:01.586Z,13.75
2023-05-08T20:32:09.687Z,12.00
2023-05-08T20:37:20.844Z,9.00
2023-05-08T20:42:28.987Z,12.00
2023-05-08T20:47:34.006Z,12.00
2023-05-08T20:52:41.260Z,12.50
2023-05-08T20:57:47.556Z,13.50
2023-05-08T21:02:52.691Z,12.50
2023-05-08T21:08:01.410Z,12.75
2023-05-08T21:13:06.948Z,12.50
2023-05-08T21:18:13.426Z,13.00
2023-05-08T21:23:19.000Z,14.00
2023-05-08T21:28:23.612Z,13.25
2023-05-08T21:33:28.449Z,14.00
2023-05-08T21:38:33.218Z,11.50
2023-05-08T21:43:38.452Z,15.00
2023-05-08T21:48:43.260Z,13.00
2023-05-08T21:53:48.218Z,14.00
2023-05-08T21:58:53.028Z,11.75
2023-05-08T22:03:58.002Z,9.25
2023-05-08T22:09:02.948Z,10.00
2023-05-08T22:14:07.792Z,10.50
2023-05-08T22:19:13.089Z,10.50
2023-05-08T22:24:20.355Z,9.50
2023-05-08T22:29:25.543Z,10.75
2023-05-08T22:34:30.204Z,8.25
2023-05-08T22:39:35.057Z,10.00
2023-05-08T22:44:39.989Z,9.25
2023-05-08T22:49:45.096Z,8.50
2023-05-08T22:54:49.941Z,10.50
2023-05-08T22:59:54.499Z,9.75
2023-05-08T23:04:59.422Z,10.50
2023-05-08T23:10:04.269Z,8.75
2023-05-08T23:15:09.613Z,9.50
2023-05-08T23:20:14.775Z,15.75
2023-05-08T23:25:19.673Z,16.75
2023-05-08T23:30:24.276Z,16.75
2023-05-08T23:35:29.714Z,14.75
2023-05-08T23:40:34.504Z,15.75
2023-05-08T23:45:39.590Z,15.00
2023-05-08T23:50:44.467Z,18.00
2023-05-08T23:55:51.983Z,19.00
